Time;durP1;ratioP1;P1;durP2;ratioP2;P2;SDS_P1;SDS_P2;PMS_P1;PMS_P2;Temp;Humidity;BMP_temperature;BMP_pressure;BME280_temperature;BME280_humidity;BME280_pressure;Samples;Min_cycle;Max_cycle;Signal;HPM_P1;HPM_P2
2022/04/03 00:02:09;;;;;;;;;;;;;;;;;;5136919;27;19916;-78
2022/04/03 00:04:34;;;;;;;;;;;;;;;;;;5137710;27;19939;-78
2022/04/03 00:07:00;;;;;;;;;;;;;;;;;;5138097;27;19916;-78
2022/04/03 00:09:26;;;;;;;;;;;;;;;;;;5137518;27;19937;-78
2022/04/03 00:11:51;;;;;;;;;;;;;;;;;;5137689;27;20529;-78
2022/04/03 00:14:17;;;;;;;;;;;;;;;;;;5132597;27;19920;-79
2022/04/03 00:16:42;;;;;;;;;;;;;;;;;;5117487;28;20278;-78
2022/04/03 00:19:08;;;;;;;;;;;;;;;;;;5117535;28;19924;-78
2022/04/03 00:21:34;;;;;;;;;;;;;;;;;;5116832;28;19922;-78
2022/04/03 00:24:00;;;;;;;;;;;;;;;;;;5116959;28;19967;-78
2022/04/03 00:26:26;;;;;;;;;;;;;;;;;;5116804;28;19919;-80
2022/04/03 00:28:51;;;;;;;;;;;;;;;;;;5117032;28;19916;-78
2022/04/03 00:31:17;;;;;;;;;;;;;;;;;;5116839;28;19916;-79
2022/04/03 00:33:43;;;;;;;;;;;;;;;;;;5116198;28;20349;-78
2022/04/03 00:36:09;;;;;;;;;;;;;;;;;;5115894;28;19965;-78
2022/04/03 00:38:34;;;;;;;;;;;;;;;;;;5117206;28;19916;-78
2022/04/03 00:41:01;;;;;;;;;;;;;;;;;;5117228;28;19921;-78
2022/04/03 00:43:26;;;;;;;;;;;;;;;;;;5117232;28;20351;-78
2022/04/03 00:45:52;;;;;;;;;;;;;;;;;;5099301;28;19916;-78
2022/04/03 00:48:18;;;;;;;;;;;;;;;;;;5097054;28;19951;-78
2022/04/03 00:50:44;;;;;;;;;;;;;;;;;;5096927;28;19923;-78
2022/04/03 00:53:09;;;;;;;;;;;;;;;;;;5093898;28;19924;-77
2022/04/03 00:55:34;;;;;;;;;;;;;;;;;;5102152;28;19920;-79
2022/04/03 00:58:01;;;;;;;;;;;;;;;;;;5116533;28;19916;-79
2022/04/03 01:00:26;;;;;;;;;;;;;;;;;;5117846;28;19927;-78
2022/04/03 01:02:51;;;;;;;;;;;;;;;;;;5118097;28;20266;-78
2022/04/03 01:05:17;;;;;;;;;;;;;;;;;;5115589;28;19915;-79
2022/04/03 01:07:43;;;;;;;;;;;;;;;;;;5115784;27;19991;-78
2022/04/03 01:10:08;;;;;;;;;;;;;;;;;;5115967;28;19923;-79
2022/04/03 01:12:38;;;;;;;;;;;;;;;;;;5114127;28;19915;-79
2022/04/03 01:15:04;;;;;;;;;;;;;;;;;;5115551;28;20297;-81
2022/04/03 01:17:29;;;;;;;;;;;;;;;;;;5111770;28;19938;-79
2022/04/03 01:19:54;;;;;;;;;;;;;;;;;;5095328;28;19923;-79
2022/04/03 01:22:20;;;;;;;;;;;;;;;;;;5095132;28;19969;-79
2022/04/03 01:24:46;;;;;;;;;;;;;;;;;;5094414;28;19923;-79
2022/04/03 01:27:12;;;;;;;;;;;;;;;;;;5094944;28;19916;-78
2022/04/03 01:29:37;;;;;;;;;;;;;;;;;;5095441;28;19923;-78
2022/04/03 01:32:03;;;;;;;;;;;;;;;;;;5093910;28;19916;-78
2022/04/03 01:34:30;;;;;;;;;;;;;;;;;;5095716;28;20365;-78
2022/04/03 01:36:55;;;;;;;;;;;;;;;;;;5094975;28;19923;-78
2022/04/03 01:39:20;;;;;;;;;;;;;;;;;;5095232;28;19916;-77
2022/04/03 01:41:46;;;;;;;;;;;;;;;;;;5095083;28;19920;-79
2022/04/03 01:44:12;;;;;;;;;;;;;;;;;;5094619;28;19922;-78
2022/04/03 01:46:38;;;;;;;;;;;;;;;;;;5093618;28;20374;-78
2022/04/03 01:49:04;;;;;;;;;;;;;;;;;;5093952;28;19916;-78
2022/04/03 01:51:30;;;;;;;;;;;;;;;;;;5094514;28;19939;-78
2022/04/03 01:53:56;;;;;;;;;;;;;;;;;;5094927;28;19980;-77
2022/04/03 01:56:23;;;;;;;;;;;;;;;;;;5093438;28;22426;-79
2022/04/03 01:58:48;;;;;;;;;;;;;;;;;;5094120;28;19923;-78
2022/04/03 02:01:13;;;;;;;;;;;;;;;;;;5094785;28;19916;-77
2022/04/03 02:03:39;;;;;;;;;;;;;;;;;;5094767;28;20389;-78
2022/04/03 02:06:04;;;;;;;;;;;;;;;;;;5094265;28;19916;-79
2022/04/03 02:08:29;;;;;;;;;;;;;;;;;;5092698;28;19923;-77
2022/04/03 02:10:55;;;;;;;;;;;;;;;;;;5094100;28;20367;-77
2022/04/03 02:13:21;;;;;;;;;;;;;;;;;;5093843;28;19916;-77
2022/04/03 02:15:46;;;;;;;;;;;;;;;;;;5094014;28;19920;-79
2022/04/03 02:18:12;;;;;;;;;;;;;;;;;;5103380;28;19916;-77
2022/04/03 02:20:38;;;;;;;;;;;;;;;;;;5094113;28;19916;-77
2022/04/03 02:23:04;;;;;;;;;;;;;;;;;;5092492;28;19916;-78
2022/04/03 02:25:29;;;;;;;;;;;;;;;;;;5097007;28;20003;-77
2022/04/03 02:27:55;;;;;;;;;;;;;;;;;;5112798;28;19969;-77
2022/04/03 02:30:20;;;;;;;;;;;;;;;;;;5114355;28;19916;-77
2022/04/03 02:32:45;;;;;;;;;;;;;;;;;;5114564;28;19923;-78
2022/04/03 02:35:11;;;;;;;;;;;;;;;;;;5113978;28;19973;-77
2022/04/03 02:37:37;;;;;;;;;;;;;;;;;;5111628;28;19920;-79
2022/04/03 02:40:03;;;;;;;;;;;;;;;;;;5097764;28;19916;-79
2022/04/03 02:42:29;;;;;;;;;;;;;;;;;;5096650;28;19977;-77
2022/04/03 02:44:54;;;;;;;;;;;;;;;;;;5097323;28;19916;-78
2022/04/03 02:47:20;;;;;;;;;;;;;;;;;;5098479;28;19961;-78
2022/04/03 02:49:45;;;;;;;;;;;;;;;;;;5096721;28;19966;-77
2022/04/03 02:52:11;;;;;;;;;;;;;;;;;;5096280;28;20007;-79
2022/04/03 02:54:37;;;;;;;;;;;;;;;;;;5097244;28;19924;-79
2022/04/03 02:57:02;;;;;;;;;;;;;;;;;;5097412;28;20366;-78
2022/04/03 02:59:28;;;;;;;;;;;;;;;;;;5097422;28;20052;-77
2022/04/03 03:01:53;;;;;;;;;;;;;;;;;;5097504;28;19977;-77
2022/04/03 03:04:19;;;;;;;;;;;;;;;;;;5096215;28;20014;-77
2022/04/03 03:06:44;;;;;;;;;;;;;;;;;;5095986;28;19923;-77
2022/04/03 03:09:11;;;;;;;;;;;;;;;;;;5097203;28;19923;-78
2022/04/03 03:11:36;;;;;;;;;;;;;;;;;;5097175;28;19919;-78
2022/04/03 03:14:02;;;;;;;;;;;;;;;;;;5097283;28;20015;-78
2022/04/03 03:16:27;;;;;;;;;;;;;;;;;;5097055;28;19923;-77
2022/04/03 03:18:52;;;;;;;;;;;;;;;;;;5110082;28;19937;-79
2022/04/03 03:21:18;;;;;;;;;;;;;;;;;;5120217;28;19923;-79
2022/04/03 03:23:43;;;;;;;;;;;;;;;;;;5120197;28;20292;-79
2022/04/03 03:26:08;;;;;;;;;;;;;;;;;;5118545;28;19919;-79
2022/04/03 03:28:34;;;;;;;;;;;;;;;;;;5119928;28;19962;-79
2022/04/03 03:30:59;;;;;;;;;;;;;;;;;;5118957;28;19915;-78
2022/04/03 03:33:24;;;;;;;;;;;;;;;;;;5118639;27;19915;-78
2022/04/03 03:35:50;;;;;;;;;;;;;;;;;;5116558;28;20368;-78
2022/04/03 03:38:15;;;;;;;;;;;;;;;;;;5117715;28;19915;-78
2022/04/03 03:40:41;;;;;;;;;;;;;;;;;;5117518;28;19923;-79
2022/04/03 03:43:07;;;;;;;;;;;;;;;;;;5116239;28;19923;-78
2022/04/03 03:45:32;;;;;;;;;;;;;;;;;;5117365;28;20292;-79
2022/04/03 03:47:58;;;;;;;;;;;;;;;;;;5115653;28;19923;-78
2022/04/03 03:50:24;;;;;;;;;;;;;;;;;;5115882;28;19938;-79
2022/04/03 03:52:50;;;;;;;;;;;;;;;;;;5116922;28;19955;-78
2022/04/03 03:55:15;;;;;;;;;;;;;;;;;;5116513;28;20382;-78
2022/04/03 03:57:44;;;;;;;;;;;;;;;;;;5109304;27;20007;-78
2022/04/03 04:00:10;;;;;;;;;;;;;;;;;;5096741;28;19919;-79
2022/04/03 04:02:38;;;;;;;;;;;;;;;;;;5096488;28;19916;-78
2022/04/03 04:05:04;;;;;;;;;;;;;;;;;;5096748;28;20062;-80
2022/04/03 04:07:39;;;;;;;;;;;;;;;;;;5096384;28;19927;-78
2022/04/03 04:10:04;;;;;;;;;;;;;;;;;;5095281;28;19923;-78
2022/04/03 04:12:30;;;;;;;;;;;;;;;;;;5094866;28;19916;-77
2022/04/03 04:14:55;;;;;;;;;;;;;;;;;;5094902;28;19920;-78
2022/04/03 04:17:21;;;;;;;;;;;;;;;;;;5096576;28;19951;-78
2022/04/03 04:19:46;;;;;;;;;;;;;;;;;;5095338;28;19920;-77
2022/04/03 04:22:12;;;;;;;;;;;;;;;;;;5096176;28;19955;-78
2022/04/03 04:24:37;;;;;;;;;;;;;;;;;;5094596;28;19923;-78
2022/04/03 04:27:03;;;;;;;;;;;;;;;;;;5096506;28;19916;-79
2022/04/03 04:29:29;;;;;;;;;;;;;;;;;;5096023;28;19916;-79
2022/04/03 04:31:54;;;;;;;;;;;;;;;;;;5096183;28;20010;-78
2022/04/03 04:34:19;;;;;;;;;;;;;;;;;;5095731;28;20392;-79
2022/04/03 04:36:45;;;;;;;;;;;;;;;;;;5095626;28;20408;-79
2022/04/03 04:39:10;;;;;;;;;;;;;;;;;;5094315;28;19916;-79
2022/04/03 04:41:36;;;;;;;;;;;;;;;;;;5095606;28;20016;-79
2022/04/03 04:44:01;;;;;;;;;;;;;;;;;;5095422;28;19923;-78
2022/04/03 04:46:26;;;;;;;;;;;;;;;;;;5095307;28;19920;-78
2022/04/03 04:48:51;;;;;;;;;;;;;;;;;;5105574;28;19959;-79
2022/04/03 04:51:17;;;;;;;;;;;;;;;;;;5114524;28;19915;-79
2022/04/03 04:53:42;;;;;;;;;;;;;;;;;;5115428;28;19920;-78
2022/04/03 04:56:08;;;;;;;;;;;;;;;;;;5115641;28;19931;-77
2022/04/03 04:58:33;;;;;;;;;;;;;;;;;;5115871;28;19915;-78
2022/04/03 05:00:58;;;;;;;;;;;;;;;;;;5115334;28;20277;-77
2022/04/03 05:03:24;;;;;;;;;;;;;;;;;;5115475;28;19916;-78
2022/04/03 05:05:49;;;;;;;;;;;;;;;;;;5115357;28;20393;-78
2022/04/03 05:08:15;;;;;;;;;;;;;;;;;;5115562;28;19915;-77
2022/04/03 05:10:40;;;;;;;;;;;;;;;;;;5115634;28;20400;-77
2022/04/03 05:13:08;;;;;;;;;;;;;;;;;;5114313;28;19994;-79
2022/04/03 05:15:35;;;;;;;;;;;;;;;;;;5115828;28;19926;-78
2022/04/03 05:18:00;;;;;;;;;;;;;;;;;;5112035;28;19912;-80
2022/04/03 05:20:26;;;;;;;;;;;;;;;;;;5094169;28;20377;-79
2022/04/03 05:22:51;;;;;;;;;;;;;;;;;;5115630;27;19916;-77
2022/04/03 05:25:16;;;;;;;;;;;;;;;;;;5115464;28;19919;-79
2022/04/03 05:27:42;;;;;;;;;;;;;;;;;;5115084;28;19918;-77
2022/04/03 05:30:08;;;;;;;;;;;;;;;;;;5114397;28;19915;-78
2022/04/03 05:32:35;;;;;;;;;;;;;;;;;;5115167;28;20044;-77
2022/04/03 05:35:01;;;;;;;;;;;;;;;;;;5114705;28;19931;-77
2022/04/03 05:37:26;;;;;;;;;;;;;;;;;;5114602;28;20313;-78
2022/04/03 05:39:52;;;;;;;;;;;;;;;;;;5115177;28;19915;-77
2022/04/03 05:42:18;;;;;;;;;;;;;;;;;;5114717;28;19922;-77
2022/04/03 05:44:43;;;;;;;;;;;;;;;;;;5099506;28;19923;-78
2022/04/03 05:47:08;;;;;;;;;;;;;;;;;;5094964;28;19916;-77
2022/04/03 05:49:34;;;;;;;;;;;;;;;;;;5094802;28;19974;-78
2022/04/03 05:51:59;;;;;;;;;;;;;;;;;;5094259;28;19916;-77
2022/04/03 05:54:25;;;;;;;;;;;;;;;;;;5093360;28;19927;-78
2022/04/03 05:56:50;;;;;;;;;;;;;;;;;;5094271;28;20370;-78
2022/04/03 05:59:15;;;;;;;;;;;;;;;;;;5093962;28;19916;-78
2022/04/03 06:01:44;;;;;;;;;;;;;;;;;;5094680;28;20011;-77
2022/04/03 06:04:09;;;;;;;;;;;;;;;;;;5093694;28;19923;-79
2022/04/03 06:06:34;;;;;;;;;;;;;;;;;;5092430;28;19916;-78
2022/04/03 06:08:59;;;;;;;;;;;;;;;;;;5093975;28;20014;-78
2022/04/03 06:11:25;;;;;;;;;;;;;;;;;;5094568;28;19916;-78
2022/04/03 06:13:50;;;;;;;;;;;;;;;;;;5099737;28;19927;-78
2022/04/03 06:16:16;;;;;;;;;;;;;;;;;;5114426;28;20081;-77
2022/04/03 06:18:41;;;;;;;;;;;;;;;;;;5114641;28;19922;-77
2022/04/03 06:21:08;;;;;;;;;;;;;;;;;;5114865;28;19920;-78
2022/04/03 06:23:34;;;;;;;;;;;;;;;;;;5114363;28;20018;-78
2022/04/03 06:25:59;;;;;;;;;;;;;;;;;;5114881;28;20020;-79
2022/04/03 06:28:25;;;;;;;;;;;;;;;;;;5115288;28;19977;-77
2022/04/03 06:30:50;;;;;;;;;;;;;;;;;;5114042;28;19920;-77
2022/04/03 06:33:17;;;;;;;;;;;;;;;;;;5115058;28;19943;-79
2022/04/03 06:35:45;;;;;;;;;;;;;;;;;;5115061;28;20454;-78
2022/04/03 06:38:11;;;;;;;;;;;;;;;;;;5107392;28;19916;-78
2022/04/03 06:40:37;;;;;;;;;;;;;;;;;;5094871;28;19973;-78
2022/04/03 06:43:02;;;;;;;;;;;;;;;;;;5094813;28;19916;-78
2022/04/03 06:45:28;;;;;;;;;;;;;;;;;;5105246;28;19915;-77
2022/04/03 06:47:55;;;;;;;;;;;;;;;;;;5135305;27;19915;-79
2022/04/03 06:50:20;;;;;;;;;;;;;;;;;;5136107;27;19922;-78
2022/04/03 06:52:47;;;;;;;;;;;;;;;;;;5135402;27;19919;-78
2022/04/03 06:55:12;;;;;;;;;;;;;;;;;;5135709;27;19987;-78
2022/04/03 06:57:38;;;;;;;;;;;;;;;;;;5135989;27;19987;-77
2022/04/03 07:00:05;;;;;;;;;;;;;;;;;;5134621;27;19912;-78
2022/04/03 07:02:31;;;;;;;;;;;;;;;;;;5135945;27;19927;-78
2022/04/03 07:04:56;;;;;;;;;;;;;;;;;;5135775;27;19919;-77
2022/04/03 07:07:22;;;;;;;;;;;;;;;;;;5135855;27;19915;-78
2022/04/03 07:09:48;;;;;;;;;;;;;;;;;;5135964;27;19915;-78
2022/04/03 07:12:14;;;;;;;;;;;;;;;;;;5136311;27;19915;-78
2022/04/03 07:14:39;;;;;;;;;;;;;;;;;;5128680;27;19943;-78
2022/04/03 07:17:05;;;;;;;;;;;;;;;;;;5114782;28;19974;-78
2022/04/03 07:19:30;;;;;;;;;;;;;;;;;;5113827;28;19920;-78
2022/04/03 07:21:57;;;;;;;;;;;;;;;;;;5114759;28;19912;-78
2022/04/03 07:24:23;;;;;;;;;;;;;;;;;;5115166;28;19922;-77
2022/04/03 07:26:48;;;;;;;;;;;;;;;;;;5126464;27;19915;-78
2022/04/03 07:29:13;;;;;;;;;;;;;;;;;;5139886;27;19915;-78
2022/04/03 07:31:39;;;;;;;;;;;;;;;;;;5138020;27;19915;-77
2022/04/03 07:34:04;;;;;;;;;;;;;;;;;;5138097;27;19924;-77
2022/04/03 07:36:30;;;;;;;;;;;;;;;;;;5138241;27;19927;-76
2022/04/03 07:38:56;;;;;;;;;;;;;;;;;;5138526;27;20425;-76
2022/04/03 07:41:21;;;;;;;;;;;;;;;;;;5137910;27;19915;-76
2022/04/03 07:43:47;;;;;;;;;;;;;;;;;;5136409;27;20439;-76
2022/04/03 07:46:16;;;;;;;;;;;;;;;;;;5137481;27;20010;-77
2022/04/03 07:48:41;;;;;;;;;;;;;;;;;;5132093;27;20008;-76
2022/04/03 07:51:07;;;;;;;;;;;;;;;;;;5096682;28;19920;-76
2022/04/03 07:53:33;;;;;;;;;;;;;;;;;;5096439;28;19927;-76
2022/04/03 07:55:58;;;;;;;;;;;;;;;;;;5096274;28;19927;-77
2022/04/03 07:58:24;;;;;;;;;;;;;;;;;;5095187;28;19978;-76
2022/04/03 08:00:49;;;;;;;;;;;;;;;;;;5096333;28;19927;-77
2022/04/03 08:03:15;;;;;;;;;;;;;;;;;;5095396;28;20294;-76
2022/04/03 08:05:40;;;;;;;;;;;;;;;;;;5096040;28;20332;-76
2022/04/03 08:08:05;;;;;;;;;;;;;;;;;;5096557;28;19916;-76
2022/04/03 08:10:31;;;;;;;;;;;;;;;;;;5096236;28;19967;-76
2022/04/03 08:13:02;;;;;;;;;;;;;;;;;;5094742;28;19920;-76
2022/04/03 08:15:28;;;;;;;;;;;;;;;;;;5101316;28;19916;-76
2022/04/03 08:17:54;;;;;;;;;;;;;;;;;;5116790;28;19920;-77
2022/04/03 08:20:19;;;;;;;;;;;;;;;;;;5117511;28;20002;-80
2022/04/03 08:22:45;;;;;;;;;;;;;;;;;;5115967;28;19916;-75
2022/04/03 08:25:12;;;;;;;;;;;;;;;;;;5116412;28;20400;-74
2022/04/03 08:27:48;;;;;;;;;;;;;;;;;;5114747;28;19916;-75
2022/04/03 08:30:23;;;;;;;;;;;;;;;;;;5116523;28;19965;-74
2022/04/03 08:32:49;;;;;;;;;;;;;;;;;;5117166;28;19923;-77
2022/04/03 08:35:15;;;;;;;;;;;;;;;;;;5120164;28;19916;-77
2022/04/03 08:37:41;;;;;;;;;;;;;;;;;;5117159;28;19920;-78
2022/04/03 08:40:07;;;;;;;;;;;;;;;;;;5117544;28;20049;-78
2022/04/03 08:42:33;;;;;;;;;;;;;;;;;;5115894;28;20376;-76
2022/04/03 08:44:58;;;;;;;;;;;;;;;;;;5114929;27;19916;-77
2022/04/03 08:47:24;;;;;;;;;;;;;;;;;;5114793;28;19941;-76
2022/04/03 08:49:50;;;;;;;;;;;;;;;;;;5114674;28;19927;-77
2022/04/03 08:52:15;;;;;;;;;;;;;;;;;;5114982;28;19915;-76
2022/04/03 08:54:41;;;;;;;;;;;;;;;;;;5114076;28;19966;-76
2022/04/03 08:57:07;;;;;;;;;;;;;;;;;;5117013;28;19919;-77
2022/04/03 08:59:33;;;;;;;;;;;;;;;;;;5115141;28;19915;-77
2022/04/03 09:01:58;;;;;;;;;;;;;;;;;;5117124;28;20380;-78
2022/04/03 09:04:23;;;;;;;;;;;;;;;;;;5117635;28;20021;-79
2022/04/03 09:06:55;;;;;;;;;;;;;;;;;;5115701;28;19920;-76
2022/04/03 09:09:22;;;;;;;;;;;;;;;;;;5115446;28;19966;-76
2022/04/03 09:12:05;;;;;;;;;;;;;;;;;;5115271;27;19919;-77
2022/04/03 09:14:30;;;;;;;;;;;;;;;;;;5115267;28;20018;-76
2022/04/03 09:16:55;;;;;;;;;;;;;;;;;;5116003;28;19969;-76
2022/04/03 09:19:30;;;;;;;;;;;;;;;;;;5132474;27;19958;-76
2022/04/03 09:21:55;;;;;;;;;;;;;;;;;;5135637;27;19919;-76
2022/04/03 09:24:21;;;;;;;;;;;;;;;;;;5135674;27;20006;-76
2022/04/03 09:26:56;;;;;;;;;;;;;;;;;;5135832;27;20364;-76
2022/04/03 09:29:21;;;;;;;;;;;;;;;;;;5135728;27;19915;-75
2022/04/03 09:31:47;;;;;;;;;;;;;;;;;;5135826;27;19926;-76
2022/04/03 09:34:19;;;;;;;;;;;;;;;;;;5135935;27;19927;-77
2022/04/03 09:36:58;;;;;;;;;;;;;;;;;;5135907;27;19919;-77
2022/04/03 09:39:24;;;;;;;;;;;;;;;;;;5116186;27;19977;-76
2022/04/03 09:42:06;;;;;;;;;;;;;;;;;;5114971;28;19919;-77
2022/04/03 09:44:40;;;;;;;;;;;;;;;;;;5114791;28;20010;-77
2022/04/03 09:47:14;;;;;;;;;;;;;;;;;;5113199;28;19924;-77
2022/04/03 09:49:41;;;;;;;;;;;;;;;;;;5114522;28;20381;-77
2022/04/03 09:52:06;;;;;;;;;;;;;;;;;;5114810;28;19920;-76
2022/04/03 09:54:32;;;;;;;;;;;;;;;;;;5114403;28;20301;-77
2022/04/03 09:57:16;;;;;;;;;;;;;;;;;;5114722;28;19939;-77
2022/04/03 09:59:46;;;;;;;;;;;;;;;;;;5114407;28;20018;-77
2022/04/03 10:02:13;;;;;;;;;;;;;;;;;;5114467;28;19933;-77
2022/04/03 10:04:38;;;;;;;;;;;;;;;;;;5114563;28;20373;-76
2022/04/03 10:07:04;;;;;;;;;;;;;;;;;;5114673;28;19922;-76
2022/04/03 10:09:29;;;;;;;;;;;;;;;;;;5114273;28;20432;-76
2022/04/03 10:11:56;;;;;;;;;;;;;;;;;;5113574;28;20066;-75
2022/04/03 10:14:21;;;;;;;;;;;;;;;;;;5113977;28;19920;-76
2022/04/03 10:16:47;;;;;;;;;;;;;;;;;;5113543;28;19915;-75
2022/04/03 10:19:12;;;;;;;;;;;;;;;;;;5114861;28;19915;-76
2022/04/03 10:21:41;;;;;;;;;;;;;;;;;;5114289;28;19969;-76
2022/04/03 10:24:09;;;;;;;;;;;;;;;;;;5116224;28;19927;-77
2022/04/03 10:26:36;;;;;;;;;;;;;;;;;;5114351;28;20250;-77
2022/04/03 10:29:01;;;;;;;;;;;;;;;;;;5114780;28;20259;-77
2022/04/03 10:31:27;;;;;;;;;;;;;;;;;;5115447;28;19978;-75
2022/04/03 10:33:52;;;;;;;;;;;;;;;;;;5116481;28;19923;-77
2022/04/03 10:36:25;;;;;;;;;;;;;;;;;;5113738;28;19916;-77
2022/04/03 10:39:03;;;;;;;;;;;;;;;;;;5118167;28;19994;-79
2022/04/03 10:41:34;;;;;;;;;;;;;;;;;;5121031;28;19922;-82
2022/04/03 10:44:11;;;;;;;;;;;;;;;;;;5123066;28;19912;-80
2022/04/03 10:46:56;;;;;;;;;;;;;;;;;;5104428;28;19926;-79
2022/04/03 10:49:43;;;;;;;;;;;;;;;;;;5120292;28;19915;-79
2022/04/03 10:52:09;;;;;;;;;;;;;;;;;;5114954;28;19938;-81
2022/04/03 10:54:41;;;;;;;;;;;;;;;;;;5118848;28;19980;-78
2022/04/03 10:57:25;;;;;;;;;;;;;;;;;;5118400;28;20452;-79
2022/04/03 11:00:23;;;;;;;;;;;;;;;;;;5121656;28;19916;-82
2022/04/03 11:02:55;;;;;;;;;;;;;;;;;;5123123;28;19963;-80
2022/04/03 11:05:24;;;;;;;;;;;;;;;;;;5124445;28;19915;-81
2022/04/03 11:07:50;;;;;;;;;;;;;;;;;;5125989;28;19972;-80
2022/04/03 11:10:35;;;;;;;;;;;;;;;;;;5123926;28;19982;-79
2022/04/03 11:13:01;;;;;;;;;;;;;;;;;;5124519;28;19916;-79
2022/04/03 11:15:26;;;;;;;;;;;;;;;;;;5124827;28;20297;-78
2022/04/03 11:17:52;;;;;;;;;;;;;;;;;;5098169;28;19916;-78
2022/04/03 11:20:30;;;;;;;;;;;;;;;;;;5116127;28;19916;-78
2022/04/03 11:22:57;;;;;;;;;;;;;;;;;;5114910;28;19916;-78
2022/04/03 11:25:22;;;;;;;;;;;;;;;;;;5106440;28;19950;-79
2022/04/03 11:27:48;;;;;;;;;;;;;;;;;;5102192;28;19916;-79
2022/04/03 11:30:14;;;;;;;;;;;;;;;;;;5099104;28;19922;-77
2022/04/03 11:32:39;;;;;;;;;;;;;;;;;;5098843;28;19916;-78
2022/04/03 11:35:05;;;;;;;;;;;;;;;;;;5114029;28;19920;-78
2022/04/03 11:37:30;;;;;;;;;;;;;;;;;;5105775;28;19920;-77
2022/04/03 11:39:57;;;;;;;;;;;;;;;;;;5111183;27;19916;-78
2022/04/03 11:42:23;;;;;;;;;;;;;;;;;;5105914;28;19923;-78
2022/04/03 11:44:52;;;;;;;;;;;;;;;;;;5112116;28;19916;-78
2022/04/03 11:47:19;;;;;;;;;;;;;;;;;;5106100;28;20010;-78
2022/04/03 11:49:45;;;;;;;;;;;;;;;;;;5105081;28;20390;-78
2022/04/03 11:52:10;;;;;;;;;;;;;;;;;;5110044;28;19951;-78
2022/04/03 11:54:36;;;;;;;;;;;;;;;;;;5114565;28;19919;-78
2022/04/03 11:57:11;;;;;;;;;;;;;;;;;;5105573;28;19923;-78
2022/04/03 11:59:37;;;;;;;;;;;;;;;;;;5097433;28;19923;-77
2022/04/03 12:02:10;;;;;;;;;;;;;;;;;;5097364;28;19954;-78
2022/04/03 12:04:39;;;;;;;;;;;;;;;;;;5097210;28;19931;-78
2022/04/03 12:07:04;;;;;;;;;;;;;;;;;;5095401;28;19967;-78
2022/04/03 12:09:30;;;;;;;;;;;;;;;;;;5098515;28;19964;-78
2022/04/03 12:11:56;;;;;;;;;;;;;;;;;;5095706;28;19916;-78
2022/04/03 12:14:21;;;;;;;;;;;;;;;;;;5095004;28;20027;-78
2022/04/03 12:16:53;;;;;;;;;;;;;;;;;;5096532;28;20366;-79
2022/04/03 12:19:20;;;;;;;;;;;;;;;;;;5096122;28;19955;-80
2022/04/03 12:21:51;;;;;;;;;;;;;;;;;;5095021;28;19994;-78
2022/04/03 12:24:16;;;;;;;;;;;;;;;;;;5096359;28;19920;-78
2022/04/03 12:26:44;;;;;;;;;;;;;;;;;;5096351;28;20344;-77
2022/04/03 12:29:10;;;;;;;;;;;;;;;;;;5094717;28;19923;-77
2022/04/03 12:31:35;;;;;;;;;;;;;;;;;;5096216;28;19912;-78
2022/04/03 12:34:05;;;;;;;;;;;;;;;;;;5095501;28;20315;-77
2022/04/03 12:37:00;;;;;;;;;;;;;;;;;;5095056;28;19916;-78
2022/04/03 12:39:28;;;;;;;;;;;;;;;;;;5095470;28;20369;-79
2022/04/03 12:41:54;;;;;;;;;;;;;;;;;;5115320;28;20384;-78
2022/04/03 12:44:19;;;;;;;;;;;;;;;;;;5116453;28;19916;-77
2022/04/03 12:46:45;;;;;;;;;;;;;;;;;;5112513;28;19919;-78
2022/04/03 12:49:17;;;;;;;;;;;;;;;;;;5096154;28;20003;-79
2022/04/03 12:51:46;;;;;;;;;;;;;;;;;;5094704;28;19916;-78
2022/04/03 12:54:12;;;;;;;;;;;;;;;;;;5095609;28;19920;-77
2022/04/03 12:59:21;;;;;;;;;;;;;;;;;;5094379;28;19955;-79
2022/04/03 13:01:50;;;;;;;;;;;;;;;;;;5095776;28;20012;-78
2022/04/03 13:04:31;;;;;;;;;;;;;;;;;;5094848;28;20008;-78
2022/04/03 13:06:56;;;;;;;;;;;;;;;;;;5095438;28;19939;-78
2022/04/03 13:09:22;;;;;;;;;;;;;;;;;;5094124;28;20407;-78
2022/04/03 13:11:54;;;;;;;;;;;;;;;;;;5095373;28;19916;-78
2022/04/03 13:14:23;;;;;;;;;;;;;;;;;;5099052;27;20016;-78
2022/04/03 13:16:49;;;;;;;;;;;;;;;;;;5136658;27;19922;-79
2022/04/03 13:19:16;;;;;;;;;;;;;;;;;;5136000;27;19915;-80
2022/04/03 13:21:43;;;;;;;;;;;;;;;;;;5137446;27;19916;-79
2022/04/03 13:24:10;;;;;;;;;;;;;;;;;;5137243;27;20453;-79
2022/04/03 13:26:35;;;;;;;;;;;;;;;;;;5137067;27;19955;-80
2022/04/03 13:29:01;;;;;;;;;;;;;;;;;;5137686;27;19922;-78
2022/04/03 13:31:26;;;;;;;;;;;;;;;;;;5137481;27;19919;-79
2022/04/03 13:33:53;;;;;;;;;;;;;;;;;;5136901;27;19915;-80
2022/04/03 13:36:18;;;;;;;;;;;;;;;;;;5136458;27;19916;-79
2022/04/03 13:38:43;;;;;;;;;;;;;;;;;;5137644;27;19911;-78
2022/04/03 13:41:09;;;;;;;;;;;;;;;;;;5137269;27;19923;-79
2022/04/03 13:43:34;;;;;;;;;;;;;;;;;;5136467;27;19915;-79
2022/04/03 13:46:02;;;;;;;;;;;;;;;;;;5117927;27;19920;-78
2022/04/03 13:48:34;;;;;;;;;;;;;;;;;;5137433;27;19915;-79
2022/04/03 13:51:00;;;;;;;;;;;;;;;;;;5109258;28;20270;-79
2022/04/03 13:53:26;;;;;;;;;;;;;;;;;;5118232;28;19940;-78
2022/04/03 13:55:52;;;;;;;;;;;;;;;;;;5103102;28;19920;-79
2022/04/03 13:58:17;;;;;;;;;;;;;;;;;;5115661;28;19998;-79
2022/04/03 14:00:43;;;;;;;;;;;;;;;;;;5104034;28;19970;-80
2022/04/03 14:03:08;;;;;;;;;;;;;;;;;;5118161;28;19922;-80
2022/04/03 14:05:34;;;;;;;;;;;;;;;;;;5111750;28;20262;-79
2022/04/03 14:07:59;;;;;;;;;;;;;;;;;;5098263;28;19932;-79
2022/04/03 14:10:24;;;;;;;;;;;;;;;;;;5112168;28;19982;-79
2022/04/03 14:12:50;;;;;;;;;;;;;;;;;;5102650;28;20285;-80
2022/04/03 14:15:16;;;;;;;;;;;;;;;;;;5113618;28;19920;-78
2022/04/03 14:17:41;;;;;;;;;;;;;;;;;;5117348;28;19916;-78
2022/04/03 14:20:11;;;;;;;;;;;;;;;;;;5113621;28;19915;-80
2022/04/03 14:22:37;;;;;;;;;;;;;;;;;;5104171;28;20331;-80
2022/04/03 14:25:03;;;;;;;;;;;;;;;;;;5095962;28;19916;-78
2022/04/03 14:27:29;;;;;;;;;;;;;;;;;;5096935;28;19922;-79
2022/04/03 14:29:56;;;;;;;;;;;;;;;;;;5094383;28;20333;-78
2022/04/03 14:32:21;;;;;;;;;;;;;;;;;;5095194;28;19922;-79
2022/04/03 14:34:47;;;;;;;;;;;;;;;;;;5104340;28;19931;-79
2022/04/03 14:37:12;;;;;;;;;;;;;;;;;;5121684;28;20448;-79
2022/04/03 14:39:37;;;;;;;;;;;;;;;;;;5101787;28;19962;-78
2022/04/03 14:42:03;;;;;;;;;;;;;;;;;;5120128;28;19916;-79
2022/04/03 14:44:28;;;;;;;;;;;;;;;;;;5115509;27;19947;-79
2022/04/03 14:46:54;;;;;;;;;;;;;;;;;;5118495;28;19916;-80
2022/04/03 14:49:19;;;;;;;;;;;;;;;;;;5119679;28;19965;-79
2022/04/03 14:51:44;;;;;;;;;;;;;;;;;;5121727;28;19954;-78
2022/04/03 14:54:10;;;;;;;;;;;;;;;;;;5121629;28;19920;-79
2022/04/03 14:56:36;;;;;;;;;;;;;;;;;;5102460;28;19922;-78
2022/04/03 14:59:03;;;;;;;;;;;;;;;;;;5103117;28;20037;-79
2022/04/03 15:01:29;;;;;;;;;;;;;;;;;;5100366;28;19922;-77
2022/04/03 15:03:55;;;;;;;;;;;;;;;;;;5116254;28;20293;-77
2022/04/03 15:06:23;;;;;;;;;;;;;;;;;;5116641;28;19916;-77
2022/04/03 15:08:48;;;;;;;;;;;;;;;;;;5117423;28;19922;-77
2022/04/03 15:11:14;;;;;;;;;;;;;;;;;;5117850;28;19919;-77
2022/04/03 15:13:39;;;;;;;;;;;;;;;;;;5118014;28;19915;-77
2022/04/03 15:16:06;;;;;;;;;;;;;;;;;;5118902;28;20432;-77
2022/04/03 15:18:32;;;;;;;;;;;;;;;;;;5115676;27;19950;-77
2022/04/03 15:20:57;;;;;;;;;;;;;;;;;;5116065;28;19970;-76
2022/04/03 15:23:24;;;;;;;;;;;;;;;;;;5117349;28;20010;-76
2022/04/03 15:25:49;;;;;;;;;;;;;;;;;;5116453;28;19920;-77
2022/04/03 15:28:15;;;;;;;;;;;;;;;;;;5117423;28;20403;-77
2022/04/03 15:30:40;;;;;;;;;;;;;;;;;;5117251;28;20354;-77
2022/04/03 15:33:06;;;;;;;;;;;;;;;;;;5117180;28;19920;-76
2022/04/03 15:35:31;;;;;;;;;;;;;;;;;;5117110;28;19923;-76
2022/04/03 15:37:56;;;;;;;;;;;;;;;;;;5114759;28;19919;-77
2022/04/03 15:40:22;;;;;;;;;;;;;;;;;;5102097;28;20388;-77
2022/04/03 15:42:47;;;;;;;;;;;;;;;;;;5099128;28;19920;-77
2022/04/03 15:45:12;;;;;;;;;;;;;;;;;;5094496;28;20275;-77
2022/04/03 15:47:38;;;;;;;;;;;;;;;;;;5075271;28;19973;-77
2022/04/03 15:50:05;;;;;;;;;;;;;;;;;;5095634;28;20396;-77
2022/04/03 15:52:31;;;;;;;;;;;;;;;;;;5095492;28;19922;-77
2022/04/03 15:54:57;;;;;;;;;;;;;;;;;;5094981;28;19920;-77
2022/04/03 15:57:22;;;;;;;;;;;;;;;;;;5096267;28;19916;-77
2022/04/03 15:59:48;;;;;;;;;;;;;;;;;;5101059;28;19915;-77
2022/04/03 16:02:13;;;;;;;;;;;;;;;;;;5116885;28;20365;-77
2022/04/03 16:04:40;;;;;;;;;;;;;;;;;;5116733;28;20361;-77
2022/04/03 16:07:05;;;;;;;;;;;;;;;;;;5117320;28;19922;-77
2022/04/03 16:09:30;;;;;;;;;;;;;;;;;;5117506;28;20348;-77
2022/04/03 16:11:56;;;;;;;;;;;;;;;;;;5117015;28;19916;-77
2022/04/03 16:14:21;;;;;;;;;;;;;;;;;;5116468;28;19919;-77
2022/04/03 16:16:47;;;;;;;;;;;;;;;;;;5116504;28;20469;-77
2022/04/03 16:19:12;;;;;;;;;;;;;;;;;;5117356;28;20318;-77
2022/04/03 16:21:38;;;;;;;;;;;;;;;;;;5116515;28;20434;-77
2022/04/03 16:24:03;;;;;;;;;;;;;;;;;;5118131;28;19915;-78
2022/04/03 16:26:29;;;;;;;;;;;;;;;;;;5116624;28;19922;-77
2022/04/03 16:28:55;;;;;;;;;;;;;;;;;;5117214;28;20372;-77
2022/04/03 16:31:20;;;;;;;;;;;;;;;;;;5115487;28;19915;-78
2022/04/03 16:33:46;;;;;;;;;;;;;;;;;;5116900;28;19958;-78
2022/04/03 16:36:13;;;;;;;;;;;;;;;;;;5116591;28;19919;-78
2022/04/03 16:38:39;;;;;;;;;;;;;;;;;;5116665;28;19916;-77
2022/04/03 16:41:04;;;;;;;;;;;;;;;;;;5115313;28;19965;-77
2022/04/03 16:43:30;;;;;;;;;;;;;;;;;;5116196;28;19912;-78
2022/04/03 16:46:01;;;;;;;;;;;;;;;;;;5116056;28;19915;-78